createdAt,value
2022-12-06T00:00:49.671Z,1.66
2022-12-06T00:01:49.681Z,1.65
2022-12-06T00:02:49.655Z,1.64
2022-12-06T00:03:49.613Z,1.64
2022-12-06T00:04:49.587Z,1.64
2022-12-06T00:05:49.592Z,1.63
2022-12-06T00:06:49.569Z,1.64
2022-12-06T00:07:49.575Z,1.64
2022-12-06T00:08:49.550Z,1.65
2022-12-06T00:09:49.526Z,1.65
2022-12-06T00:10:49.539Z,1.65
2022-12-06T00:11:49.476Z,1.64
2022-12-06T00:12:49.477Z,1.64
2022-12-06T00:13:49.470Z,1.63
2022-12-06T00:14:49.463Z,1.63
2022-12-06T00:15:49.411Z,1.62
2022-12-06T00:16:49.484Z,1.62
2022-12-06T00:17:49.410Z,1.61
2022-12-06T00:18:49.389Z,1.60
2022-12-06T00:19:49.368Z,1.59
2022-12-06T00:20:49.378Z,1.58
2022-12-06T00:21:49.443Z,1.58
2022-12-06T00:22:49.380Z,1.57
2022-12-06T00:23:49.358Z,1.57
2022-12-06T00:24:49.314Z,1.56
2022-12-06T00:25:49.349Z,1.56
2022-12-06T00:26:49.307Z,1.55
2022-12-06T00:27:49.263Z,1.54
2022-12-06T00:28:49.291Z,1.53
2022-12-06T00:29:49.267Z,1.53
2022-12-06T00:30:49.241Z,1.52
2022-12-06T00:31:49.301Z,1.52
2022-12-06T00:32:49.224Z,1.52
2022-12-06T00:33:49.218Z,1.52
2022-12-06T00:34:49.190Z,1.51
2022-12-06T00:35:49.168Z,1.51
2022-12-06T00:36:49.188Z,1.51
2022-12-06T00:37:49.152Z,1.51
2022-12-06T00:38:49.133Z,1.51
2022-12-06T00:39:49.146Z,1.51
2022-12-06T00:40:49.131Z,1.50
2022-12-06T00:41:49.104Z,1.50
2022-12-06T00:42:49.098Z,1.51
2022-12-06T00:43:49.068Z,1.51
2022-12-06T00:44:49.071Z,1.50
2022-12-06T00:45:49.135Z,1.50
2022-12-06T00:46:49.023Z,1.49
2022-12-06T00:47:49.005Z,1.49
2022-12-06T00:48:49.009Z,1.49
2022-12-06T00:49:49.002Z,1.49
2022-12-06T00:50:48.995Z,1.49
2022-12-06T00:51:48.987Z,1.49
2022-12-06T00:52:48.973Z,1.49
2022-12-06T00:53:48.930Z,1.49
2022-12-06T00:54:48.911Z,1.49
2022-12-06T00:55:48.901Z,1.49
2022-12-06T00:56:48.897Z,1.49
2022-12-06T00:57:48.907Z,1.49
2022-12-06T00:58:48.852Z,1.50
2022-12-06T00:59:48.833Z,1.50
2022-12-06T01:00:48.882Z,1.49
2022-12-06T01:01:48.933Z,1.49
2022-12-06T01:02:48.918Z,1.48
2022-12-06T01:03:48.858Z,1.48
2022-12-06T01:04:48.818Z,1.48
2022-12-06T01:05:48.776Z,1.47
2022-12-06T01:06:48.784Z,1.47
2022-12-06T01:07:48.838Z,1.46
2022-12-06T01:08:48.756Z,1.45
2022-12-06T01:09:48.694Z,1.45
2022-12-06T01:10:48.687Z,1.44
2022-12-06T01:11:48.714Z,1.44
2022-12-06T01:12:48.683Z,1.44
2022-12-06T01:13:48.679Z,1.44
2022-12-06T01:14:48.648Z,1.44
2022-12-06T01:15:48.908Z,1.45
2022-12-06T01:16:48.664Z,1.45
2022-12-06T01:17:48.626Z,1.45
2022-12-06T01:18:48.612Z,1.44
2022-12-06T01:19:48.591Z,1.44
2022-12-06T01:20:48.633Z,1.44
2022-12-06T01:21:48.547Z,1.43
2022-12-06T01:22:48.578Z,1.43
2022-12-06T01:23:48.564Z,1.43
2022-12-06T01:24:48.570Z,1.43
2022-12-06T01:25:48.538Z,1.43
2022-12-06T01:26:48.476Z,1.43
2022-12-06T01:27:48.486Z,1.42
2022-12-06T01:28:48.489Z,1.41
2022-12-06T01:29:48.456Z,1.41
2022-12-06T01:30:48.485Z,1.41
2022-12-06T01:31:48.457Z,1.41
2022-12-06T01:32:48.414Z,1.40
2022-12-06T01:33:48.393Z,1.39
2022-12-06T01:34:48.410Z,1.39
2022-12-06T01:35:48.374Z,1.38
2022-12-06T01:36:48.358Z,1.38
2022-12-06T01:37:48.341Z,1.37
2022-12-06T01:38:48.317Z,1.37
2022-12-06T01:39:48.309Z,1.37
2022-12-06T01:40:48.350Z,1.37
2022-12-06T01:41:48.277Z,1.37
2022-12-06T01:42:48.304Z,1.38
2022-12-06T01:43:48.272Z,1.38
2022-12-06T01:44:48.259Z,1.38
2022-12-06T01:45:48.315Z,1.39
2022-12-06T01:46:48.255Z,1.39
2022-12-06T01:47:48.207Z,1.40
2022-12-06T01:48:48.176Z,1.40
2022-12-06T01:49:48.176Z,1.40
2022-12-06T01:50:48.155Z,1.40
2022-12-06T01:51:48.201Z,1.39
2022-12-06T01:52:48.151Z,1.39
2022-12-06T01:53:48.154Z,1.39
2022-12-06T01:54:48.178Z,1.38
2022-12-06T01:55:48.141Z,1.38
2022-12-06T01:56:48.117Z,1.37
2022-12-06T01:57:48.095Z,1.37
2022-12-06T01:58:48.079Z,1.36
2022-12-06T01:59:48.027Z,1.36
2022-12-06T02:00:48.109Z,1.36
2022-12-06T02:01:48.091Z,1.36
2022-12-06T02:02:48.073Z,1.36
2022-12-06T02:03:48.011Z,1.35
2022-12-06T02:04:47.995Z,1.35
2022-12-06T02:05:47.984Z,1.34
2022-12-06T02:06:47.958Z,1.34
2022-12-06T02:07:48.004Z,1.34
2022-12-06T02:08:47.967Z,1.34
2022-12-06T02:09:47.965Z,1.34
2022-12-06T02:10:47.908Z,1.34
2022-12-06T02:11:47.874Z,1.33
2022-12-06T02:12:47.886Z,1.33
2022-12-06T02:13:47.845Z,1.33
2022-12-06T02:14:47.897Z,1.33
2022-12-06T02:15:47.859Z,1.33
2022-12-06T02:16:47.867Z,1.33
2022-12-06T02:17:47.816Z,1.33
2022-12-06T02:18:47.817Z,1.33
2022-12-06T02:19:47.776Z,1.32
2022-12-06T02:20:47.781Z,1.31
2022-12-06T02:21:47.788Z,1.30
2022-12-06T02:22:47.765Z,1.29
2022-12-06T02:23:47.705Z,1.29
2022-12-06T02:24:47.730Z,1.30
2022-12-06T02:25:47.741Z,1.30
2022-12-06T02:26:47.703Z,1.29
2022-12-06T02:27:47.680Z,1.29
2022-12-06T02:28:47.665Z,1.28
2022-12-06T02:29:47.652Z,1.27
2022-12-06T02:30:47.748Z,1.26
2022-12-06T02:31:47.657Z,1.26
2022-12-06T02:32:53.263Z,1.25
2022-12-06T02:33:47.629Z,1.25
2022-12-06T02:34:47.581Z,1.25
2022-12-06T02:35:47.558Z,1.25
2022-12-06T02:36:47.553Z,1.25
2022-12-06T02:37:47.565Z,1.25
2022-12-06T02:38:47.563Z,1.25
2022-12-06T02:39:47.491Z,1.25
2022-12-06T02:40:47.504Z,1.25
2022-12-06T02:41:47.533Z,1.25
2022-12-06T02:42:47.486Z,1.24
2022-12-06T02:43:47.449Z,1.24
2022-12-06T02:44:47.458Z,1.23
2022-12-06T02:45:47.479Z,1.23
2022-12-06T02:46:47.419Z,1.23
2022-12-06T02:47:47.428Z,1.22
2022-12-06T02:48:47.444Z,1.22
2022-12-06T02:49:47.365Z,1.21
2022-12-06T02:50:47.386Z,1.20
2022-12-06T02:51:47.356Z,1.19
2022-12-06T02:52:47.362Z,1.19
2022-12-06T02:53:47.348Z,1.19
2022-12-06T02:54:47.340Z,1.18
2022-12-06T02:55:47.308Z,1.17
2022-12-06T02:56:47.302Z,1.16
2022-12-06T02:57:47.269Z,1.16
2022-12-06T02:58:47.311Z,1.17
2022-12-06T02:59:47.272Z,1.17
2022-12-06T03:00:47.420Z,1.18
2022-12-06T03:01:47.291Z,1.17
2022-12-06T03:02:47.286Z,1.17
2022-12-06T03:03:47.221Z,1.17
2022-12-06T03:04:47.173Z,1.17
2022-12-06T03:05:47.166Z,1.16
2022-12-06T03:06:47.131Z,1.17
2022-12-06T03:07:47.197Z,1.17
2022-12-06T03:08:47.131Z,1.17
2022-12-06T03:09:47.106Z,1.18
2022-12-06T03:10:47.104Z,1.17
2022-12-06T03:11:47.076Z,1.17
2022-12-06T03:12:47.063Z,1.17
2022-12-06T03:13:47.077Z,1.17
2022-12-06T03:14:47.079Z,1.16
2022-12-06T03:15:47.063Z,1.16
2022-12-06T03:16:47.013Z,1.16
2022-12-06T03:17:47.010Z,1.16
2022-12-06T03:18:46.990Z,1.16
2022-12-06T03:19:46.964Z,1.16
2022-12-06T03:20:47.006Z,1.16
2022-12-06T03:21:46.956Z,1.16
2022-12-06T03:22:46.935Z,1.16
2022-12-06T03:23:46.914Z,1.16
2022-12-06T03:24:46.938Z,1.16
2022-12-06T03:25:46.896Z,1.16
2022-12-06T03:26:46.862Z,1.16
2022-12-06T03:27:46.866Z,1.16
2022-12-06T03:28:46.858Z,1.16
2022-12-06T03:29:46.835Z,1.16
2022-12-06T03:30:46.862Z,1.16
2022-12-06T03:31:46.806Z,1.15
2022-12-06T03:32:46.803Z,1.15
2022-12-06T03:33:46.797Z,1.14
2022-12-06T03:34:46.783Z,1.14
2022-12-06T03:35:46.766Z,1.14
2022-12-06T03:36:46.757Z,1.13
2022-12-06T03:37:46.736Z,1.13
2022-12-06T03:38:46.726Z,1.13
2022-12-06T03:39:46.726Z,1.13
2022-12-06T03:40:46.722Z,1.13
2022-12-06T03:41:46.691Z,1.13
2022-12-06T03:42:46.656Z,1.13
2022-12-06T03:43:46.651Z,1.13
2022-12-06T03:44:46.618Z,1.13
2022-12-06T03:45:46.688Z,1.13
2022-12-06T03:46:46.755Z,1.13
2022-12-06T03:47:46.604Z,1.13
2022-12-06T03:48:46.566Z,1.13
2022-12-06T03:49:46.566Z,1.13
2022-12-06T03:50:46.539Z,1.12
2022-12-06T03:51:46.524Z,1.12
2022-12-06T03:52:46.532Z,1.12
2022-12-06T03:53:46.508Z,1.12
2022-12-06T03:54:46.489Z,1.11
2022-12-06T03:55:46.497Z,1.11
2022-12-06T03:56:46.485Z,1.11
2022-12-06T03:57:46.465Z,1.11
2022-12-06T03:58:46.483Z,1.11
2022-12-06T03:59:46.457Z,1.11
2022-12-06T04:00:46.458Z,1.11
2022-12-06T04:01:46.494Z,1.11
2022-12-06T04:02:46.412Z,1.11
2022-12-06T04:03:46.417Z,1.11
2022-12-06T04:04:46.393Z,1.11
2022-12-06T04:05:46.360Z,1.11
2022-12-06T04:06:46.350Z,1.10
2022-12-06T04:07:46.388Z,1.10
2022-12-06T04:08:46.338Z,1.10
2022-12-06T04:09:46.329Z,1.09
2022-12-06T04:10:46.306Z,1.10
2022-12-06T04:11:46.274Z,1.10
2022-12-06T04:12:46.267Z,1.10
2022-12-06T04:13:46.266Z,1.09
2022-12-06T04:14:46.253Z,1.09
2022-12-06T04:15:46.298Z,1.09
2022-12-06T04:16:46.207Z,1.08
2022-12-06T04:17:46.238Z,1.08
2022-12-06T04:18:46.209Z,1.08
2022-12-06T04:19:51.835Z,1.08
2022-12-06T04:20:46.194Z,1.08
2022-12-06T04:21:46.160Z,1.08
2022-12-06T04:22:46.200Z,1.08
2022-12-06T04:23:46.138Z,1.08
2022-12-06T04:24:46.129Z,1.08
2022-12-06T04:25:46.104Z,1.08
2022-12-06T04:26:46.120Z,1.08
2022-12-06T04:27:46.078Z,1.08
2022-12-06T04:28:46.060Z,1.08
2022-12-06T04:29:46.043Z,1.09
2022-12-06T04:30:46.058Z,1.09
2022-12-06T04:31:46.093Z,1.09
2022-12-06T04:32:45.982Z,1.09
2022-12-06T04:33:46.004Z,1.08
2022-12-06T04:34:46.001Z,1.08
2022-12-06T04:35:45.945Z,1.08
2022-12-06T04:36:45.937Z,1.08
2022-12-06T04:37:45.938Z,1.09
2022-12-06T04:38:45.964Z,1.09
2022-12-06T04:39:45.930Z,1.09
2022-12-06T04:40:45.893Z,1.09
2022-12-06T04:41:45.898Z,1.08
2022-12-06T04:42:45.939Z,1.08
2022-12-06T04:43:45.880Z,1.08
2022-12-06T04:44:45.866Z,1.08
2022-12-06T04:45:45.815Z,1.08
2022-12-06T04:46:45.914Z,1.08
2022-12-06T04:47:45.789Z,1.08
2022-12-06T04:48:45.781Z,1.08
2022-12-06T04:49:45.773Z,1.08
2022-12-06T04:50:45.741Z,1.09
2022-12-06T04:51:45.736Z,1.09
2022-12-06T04:52:45.726Z,1.09
2022-12-06T04:53:45.726Z,1.08
2022-12-06T04:54:45.697Z,1.08
2022-12-06T04:55:45.698Z,1.08
2022-12-06T04:56:45.679Z,1.08
2022-12-06T04:57:45.697Z,1.09
2022-12-06T04:58:45.679Z,1.09
2022-12-06T04:59:45.656Z,1.09
2022-12-06T05:00:45.692Z,1.08
2022-12-06T05:01:45.599Z,1.08
2022-12-06T05:02:45.581Z,1.08
2022-12-06T05:03:45.634Z,1.08
2022-12-06T05:04:45.552Z,1.08
2022-12-06T05:05:45.561Z,1.08
2022-12-06T05:06:45.547Z,1.08
2022-12-06T05:07:45.570Z,1.08
2022-12-06T05:08:45.528Z,1.07
2022-12-06T05:09:45.513Z,1.07
2022-12-06T05:10:45.508Z,1.06
2022-12-06T05:11:45.501Z,1.06
2022-12-06T05:12:45.466Z,1.05
2022-12-06T05:13:45.461Z,1.05
2022-12-06T05:14:45.444Z,1.04
2022-12-06T05:15:45.448Z,1.04
2022-12-06T05:16:45.422Z,1.04
2022-12-06T05:17:45.399Z,1.03
2022-12-06T05:18:45.393Z,1.03
2022-12-06T05:19:45.377Z,1.03
2022-12-06T05:20:45.376Z,1.03
2022-12-06T05:21:45.361Z,1.03
2022-12-06T05:22:45.336Z,1.03
2022-12-06T05:23:45.348Z,1.04
2022-12-06T05:24:45.317Z,1.04
2022-12-06T05:25:45.302Z,1.04
2022-12-06T05:26:45.322Z,1.04
2022-12-06T05:27:45.271Z,1.04
2022-12-06T05:28:45.264Z,1.05
2022-12-06T05:29:45.253Z,1.05
2022-12-06T05:30:45.224Z,1.05
2022-12-06T05:31:45.267Z,1.05
2022-12-06T05:32:45.189Z,1.05
2022-12-06T05:33:45.195Z,1.05
2022-12-06T05:34:45.185Z,1.05
2022-12-06T05:35:45.172Z,1.04
2022-12-06T05:36:45.188Z,1.04
2022-12-06T05:37:45.156Z,1.04
2022-12-06T05:38:50.969Z,1.03
2022-12-06T05:39:45.108Z,1.02
2022-12-06T05:40:45.106Z,1.02
2022-12-06T05:41:45.093Z,1.01
2022-12-06T05:42:45.071Z,1.01
2022-12-06T05:43:45.110Z,1.00
2022-12-06T05:44:45.080Z,1.00
2022-12-06T05:45:45.101Z,0.99
2022-12-06T05:46:45.051Z,0.99
2022-12-06T05:47:45.035Z,0.98
2022-12-06T05:48:44.989Z,0.98
2022-12-06T05:49:45.012Z,0.98
2022-12-06T05:50:44.967Z,0.98
2022-12-06T05:51:44.955Z,0.97
2022-12-06T05:52:44.939Z,0.97
2022-12-06T05:53:44.960Z,0.97
2022-12-06T05:54:44.945Z,0.96
2022-12-06T05:55:44.906Z,0.96
2022-12-06T05:56:44.880Z,0.96
2022-12-06T05:57:47.332Z,0.96
2022-12-06T05:58:44.898Z,0.96
2022-12-06T05:59:44.859Z,0.97
2022-12-06T06:00:44.861Z,0.97
2022-12-06T06:01:44.883Z,0.97
2022-12-06T06:02:44.945Z,0.97
2022-12-06T06:03:47.685Z,0.97
2022-12-06T06:04:44.770Z,0.98
2022-12-06T06:05:44.781Z,0.98
2022-12-06T06:06:44.727Z,0.98
2022-12-06T06:07:44.857Z,0.98
2022-12-06T06:08:44.720Z,0.98
2022-12-06T06:09:44.693Z,0.98
2022-12-06T06:10:44.699Z,0.98
2022-12-06T06:11:44.689Z,0.98
2022-12-06T06:12:44.693Z,0.98
2022-12-06T06:13:44.657Z,0.98
2022-12-06T06:14:44.658Z,0.99
2022-12-06T06:15:44.648Z,0.99
2022-12-06T06:16:44.708Z,0.99
2022-12-06T06:17:44.611Z,0.99
2022-12-06T06:18:44.613Z,0.99
2022-12-06T06:19:47.591Z,0.99
2022-12-06T06:20:44.560Z,0.99
2022-12-06T06:21:44.562Z,0.99
2022-12-06T06:22:44.531Z,0.99
2022-12-06T06:23:44.502Z,0.99
2022-12-06T06:24:44.553Z,0.99
2022-12-06T06:25:44.566Z,0.99
2022-12-06T06:26:44.520Z,1.00
2022-12-06T06:27:44.467Z,1.00
2022-12-06T06:28:44.434Z,1.00
2022-12-06T06:29:56.900Z,1.00
2022-12-06T06:30:44.442Z,1.00
2022-12-06T06:31:44.497Z,1.00
2022-12-06T06:32:44.430Z,1.00
2022-12-06T06:33:44.364Z,1.00
2022-12-06T06:34:44.376Z,1.01
2022-12-06T06:35:44.366Z,1.01
2022-12-06T06:36:46.160Z,1.01
2022-12-06T06:37:44.358Z,1.01
2022-12-06T06:38:44.312Z,1.01
2022-12-06T06:39:44.302Z,1.01
2022-12-06T06:40:44.313Z,1.00
2022-12-06T06:41:44.287Z,0.99
2022-12-06T06:42:44.256Z,0.98
2022-12-06T06:43:44.251Z,0.98
2022-12-06T06:44:44.215Z,0.97
2022-12-06T06:45:44.256Z,0.96
2022-12-06T06:46:44.253Z,0.96
2022-12-06T06:47:44.225Z,0.95
2022-12-06T06:48:44.171Z,0.94
2022-12-06T06:49:44.205Z,0.94
2022-12-06T06:50:44.167Z,0.93
2022-12-06T06:51:44.135Z,0.93
2022-12-06T06:52:44.127Z,0.92
2022-12-06T06:53:44.129Z,0.92
2022-12-06T06:54:44.112Z,0.91
2022-12-06T06:55:44.156Z,0.91
2022-12-06T06:56:44.120Z,0.90
2022-12-06T06:57:44.074Z,0.89
2022-12-06T06:58:44.074Z,0.89
2022-12-06T06:59:44.017Z,0.89
2022-12-06T07:00:44.002Z,0.89
2022-12-06T07:01:44.073Z,0.89
2022-12-06T07:02:44.140Z,0.90
2022-12-06T07:03:43.994Z,0.90
2022-12-06T07:04:43.969Z,0.90
2022-12-06T07:05:43.964Z,0.90
2022-12-06T07:06:43.923Z,0.89
2022-12-06T07:07:43.960Z,0.89
2022-12-06T07:08:43.932Z,0.89
2022-12-06T07:09:43.908Z,0.88
2022-12-06T07:10:43.882Z,0.87
2022-12-06T07:11:43.860Z,0.87
2022-12-06T07:12:43.853Z,0.87
2022-12-06T07:13:46.879Z,0.87
2022-12-06T07:14:43.854Z,0.87
2022-12-06T07:15:43.834Z,0.87
2022-12-06T07:16:43.871Z,0.87
2022-12-06T07:17:43.817Z,0.87
2022-12-06T07:18:43.791Z,0.88
2022-12-06T07:19:43.792Z,0.87
2022-12-06T07:20:43.760Z,0.87
2022-12-06T07:21:43.743Z,0.87
2022-12-06T07:22:43.723Z,0.87
2022-12-06T07:23:43.727Z,0.88
2022-12-06T07:24:47.847Z,0.88
2022-12-06T07:25:43.706Z,0.88
2022-12-06T07:26:43.684Z,0.88
2022-12-06T07:27:43.658Z,0.88
2022-12-06T07:28:43.646Z,0.88
2022-12-06T07:29:43.629Z,0.88
2022-12-06T07:30:43.624Z,0.89
2022-12-06T07:31:43.622Z,0.89
2022-12-06T07:32:43.599Z,0.90
2022-12-06T07:33:43.588Z,0.90
2022-12-06T07:34:43.552Z,0.90
2022-12-06T07:36:10.734Z,0.90
2022-12-06T07:36:43.551Z,0.90
2022-12-06T07:37:43.540Z,0.91
2022-12-06T07:38:43.500Z,0.92
2022-12-06T07:39:43.503Z,0.93
2022-12-06T07:41:43.481Z,0.94
2022-12-06T07:42:43.456Z,0.94
2022-12-06T07:43:43.455Z,0.94
2022-12-06T07:44:43.441Z,0.95
2022-12-06T07:45:43.433Z,0.96
2022-12-06T07:46:43.410Z,0.96
2022-12-06T07:47:43.398Z,0.96
2022-12-06T07:48:43.367Z,0.97
2022-12-06T07:49:43.373Z,0.97
2022-12-06T07:50:43.336Z,0.98
2022-12-06T07:51:43.325Z,0.98
2022-12-06T07:52:43.320Z,0.99
2022-12-06T07:53:43.312Z,0.99
2022-12-06T07:54:43.280Z,1.00
2022-12-06T07:55:43.284Z,1.01
2022-12-06T07:56:43.257Z,1.02
2022-12-06T07:57:44.142Z,1.02
2022-12-06T07:58:43.270Z,1.02
2022-12-06T07:59:43.240Z,1.02
2022-12-06T08:00:43.203Z,1.02
2022-12-06T08:01:43.243Z,1.02
2022-12-06T08:02:43.195Z,1.03
2022-12-06T08:03:43.188Z,1.03
2022-12-06T08:04:43.391Z,1.03
2022-12-06T08:05:43.149Z,1.03
2022-12-06T08:06:43.133Z,1.03
2022-12-06T08:07:43.152Z,1.04
2022-12-06T08:08:43.121Z,1.04
2022-12-06T08:09:43.112Z,1.04
2022-12-06T08:10:43.085Z,1.04
2022-12-06T08:11:43.115Z,1.05
2022-12-06T08:12:43.086Z,1.06
2022-12-06T08:13:43.076Z,1.07
2022-12-06T08:14:43.038Z,1.07
2022-12-06T08:15:43.052Z,1.07
2022-12-06T08:16:43.010Z,1.07
2022-12-06T08:17:43.001Z,1.07
2022-12-06T08:18:43.006Z,1.08
2022-12-06T08:19:42.991Z,1.08
2022-12-06T08:20:42.968Z,1.09
2022-12-06T08:21:42.929Z,1.09
2022-12-06T08:22:42.937Z,1.10
2022-12-06T08:23:42.924Z,1.11
2022-12-06T08:24:42.920Z,1.12
2022-12-06T08:25:42.881Z,1.13
2022-12-06T08:26:42.899Z,1.14
2022-12-06T08:27:42.837Z,1.14
2022-12-06T08:28:42.864Z,1.13
2022-12-06T08:29:42.809Z,1.13
2022-12-06T08:30:42.886Z,1.13
2022-12-06T08:31:42.879Z,1.14
2022-12-06T08:32:42.846Z,1.14
2022-12-06T08:33:42.770Z,1.14
2022-12-06T08:34:42.774Z,1.15
2022-12-06T08:35:42.766Z,1.16
2022-12-06T08:36:42.756Z,1.16
2022-12-06T08:37:42.736Z,1.17
2022-12-06T08:38:42.728Z,1.18
2022-12-06T08:39:42.721Z,1.18
2022-12-06T08:40:42.666Z,1.19
2022-12-06T08:41:42.649Z,1.19
2022-12-06T08:42:42.668Z,1.20
2022-12-06T08:43:42.655Z,1.21
2022-12-06T08:44:42.629Z,1.20
2022-12-06T08:45:42.645Z,1.20
2022-12-06T08:46:42.671Z,1.20
2022-12-06T08:47:42.596Z,1.20
2022-12-06T08:48:43.519Z,1.20
2022-12-06T08:49:42.568Z,1.21
2022-12-06T08:50:42.563Z,1.22
2022-12-06T08:51:42.523Z,1.23
2022-12-06T08:52:42.541Z,1.24
2022-12-06T08:53:42.561Z,1.25
2022-12-06T08:54:42.485Z,1.26
2022-12-06T08:55:42.476Z,1.27
2022-12-06T08:56:42.478Z,1.29
2022-12-06T08:57:42.461Z,1.30
2022-12-06T08:58:42.436Z,1.30
2022-12-06T08:59:42.434Z,1.31
2022-12-06T09:00:42.439Z,1.32
2022-12-06T09:01:42.432Z,1.33
2022-12-06T09:02:42.369Z,1.35
2022-12-06T09:03:42.370Z,1.35
2022-12-06T09:04:42.445Z,1.34
2022-12-06T09:05:42.340Z,1.33
2022-12-06T09:06:42.358Z,1.32
2022-12-06T09:07:42.404Z,1.32
2022-12-06T09:08:42.326Z,1.34
2022-12-06T09:09:42.292Z,1.35
2022-12-06T09:10:42.274Z,1.37
2022-12-06T09:11:42.303Z,1.38
2022-12-06T09:12:42.267Z,1.38
2022-12-06T09:13:42.277Z,1.37
2022-12-06T09:14:42.228Z,1.37
2022-12-06T09:15:42.282Z,1.37
2022-12-06T09:16:42.202Z,1.39
2022-12-06T09:17:42.244Z,1.41
2022-12-06T09:18:42.229Z,1.42
2022-12-06T09:19:42.211Z,1.43
2022-12-06T09:20:42.162Z,1.44
2022-12-06T09:21:42.118Z,1.45
2022-12-06T09:22:42.102Z,1.45
2022-12-06T09:23:42.100Z,1.46
2022-12-06T09:24:42.095Z,1.46
2022-12-06T09:25:42.076Z,1.46
2022-12-06T09:26:42.086Z,1.46
2022-12-06T09:27:42.075Z,1.45
2022-12-06T09:28:42.062Z,1.45
2022-12-06T09:29:42.028Z,1.46
2022-12-06T09:30:42.009Z,1.46
2022-12-06T09:31:42.071Z,1.47
2022-12-06T09:32:41.997Z,1.48
2022-12-06T09:33:41.987Z,1.48
2022-12-06T09:34:41.940Z,1.48
2022-12-06T09:35:42.011Z,1.49
2022-12-06T09:36:42.031Z,1.50
2022-12-06T09:37:41.916Z,1.50
2022-12-06T09:38:41.921Z,1.50
2022-12-06T09:39:41.903Z,1.50
2022-12-06T09:40:43.155Z,1.50
2022-12-06T09:41:41.951Z,1.49
2022-12-06T09:42:41.899Z,1.49
2022-12-06T09:43:41.848Z,1.48
2022-12-06T09:44:41.855Z,1.47
2022-12-06T09:45:41.842Z,1.47
2022-12-06T09:46:41.858Z,1.47
2022-12-06T09:47:41.804Z,1.48
2022-12-06T09:48:47.303Z,1.48
2022-12-06T09:49:41.774Z,1.49
2022-12-06T09:50:41.767Z,1.49
2022-12-06T09:51:41.763Z,1.49
2022-12-06T09:52:41.768Z,1.50
2022-12-06T09:53:41.708Z,1.51
2022-12-06T09:54:44.977Z,1.52
2022-12-06T09:55:41.694Z,1.54
2022-12-06T09:56:41.677Z,1.56
2022-12-06T09:57:41.664Z,1.57
2022-12-06T09:58:41.624Z,1.58
2022-12-06T09:59:41.626Z,1.57
2022-12-06T10:00:41.714Z,1.55
2022-12-06T10:01:41.750Z,1.53
2022-12-06T10:02:41.646Z,1.53
2022-12-06T10:03:41.583Z,1.52
2022-12-06T10:04:41.550Z,1.53
2022-12-06T10:05:41.543Z,1.54
2022-12-06T10:06:41.530Z,1.56
2022-12-06T10:07:41.809Z,1.58
2022-12-06T10:08:41.675Z,1.60
2022-12-06T10:09:41.472Z,1.61
2022-12-06T10:10:41.491Z,1.62
2022-12-06T10:11:41.461Z,1.62
2022-12-06T10:12:41.456Z,1.61
2022-12-06T10:13:41.428Z,1.61
2022-12-06T10:14:41.411Z,1.60
2022-12-06T10:15:41.453Z,1.60
2022-12-06T10:16:41.517Z,1.60
2022-12-06T10:17:41.396Z,1.61
2022-12-06T10:18:41.365Z,1.61
2022-12-06T10:19:41.357Z,1.61
2022-12-06T10:20:41.336Z,1.61
2022-12-06T10:21:41.349Z,1.62
2022-12-06T10:22:41.315Z,1.63
2022-12-06T10:23:41.297Z,1.63
2022-12-06T10:24:41.289Z,1.63
2022-12-06T10:25:41.292Z,1.63
2022-12-06T10:26:41.277Z,1.63
2022-12-06T10:27:41.270Z,1.63
2022-12-06T10:28:41.275Z,1.63
2022-12-06T10:29:41.251Z,1.63
2022-12-06T10:30:41.229Z,1.63
2022-12-06T10:31:41.317Z,1.64
2022-12-06T10:32:41.247Z,1.64
2022-12-06T10:33:41.191Z,1.65
2022-12-06T10:34:45.802Z,1.66
2022-12-06T10:35:41.154Z,1.67
2022-12-06T10:36:41.189Z,1.68
2022-12-06T10:37:41.174Z,1.69
2022-12-06T10:38:41.170Z,1.70
2022-12-06T10:39:41.130Z,1.71
2022-12-06T10:40:41.104Z,1.71
2022-12-06T10:41:41.137Z,1.72
2022-12-06T10:42:41.105Z,1.73
2022-12-06T10:43:41.084Z,1.74
2022-12-06T10:44:41.119Z,1.75
2022-12-06T10:45:41.074Z,1.76
2022-12-06T10:46:41.122Z,1.78
2022-12-06T10:47:41.027Z,1.79
2022-12-06T10:48:41.032Z,1.81
2022-12-06T10:49:41.090Z,1.82
2022-12-06T10:50:41.020Z,1.83
2022-12-06T10:51:40.943Z,1.84
2022-12-06T10:52:40.972Z,1.86
2022-12-06T10:53:40.921Z,1.88
2022-12-06T10:54:40.905Z,1.89
2022-12-06T10:55:40.921Z,1.91
2022-12-06T10:56:40.891Z,1.93
2022-12-06T10:57:40.856Z,1.93
2022-12-06T10:58:40.853Z,1.92
2022-12-06T10:59:40.849Z,1.90
2022-12-06T11:00:40.918Z,1.89
2022-12-06T11:01:40.844Z,1.87
2022-12-06T11:02:40.878Z,1.85
2022-12-06T11:03:40.833Z,1.84
2022-12-06T11:04:40.784Z,1.84
2022-12-06T11:05:40.776Z,1.83
2022-12-06T11:06:40.750Z,1.83
2022-12-06T11:07:40.968Z,1.83
2022-12-06T11:08:40.744Z,1.83
2022-12-06T11:09:40.711Z,1.83
2022-12-06T11:10:40.716Z,1.84
2022-12-06T11:11:40.710Z,1.85
2022-12-06T11:12:40.658Z,1.86
2022-12-06T11:13:40.658Z,1.86
2022-12-06T11:14:40.650Z,1.87
2022-12-06T11:15:40.615Z,1.88
2022-12-06T11:16:40.669Z,1.89
2022-12-06T11:17:40.641Z,1.89
2022-12-06T11:18:40.574Z,1.89
2022-12-06T11:19:40.578Z,1.90
2022-12-06T11:20:40.568Z,1.91
2022-12-06T11:21:40.543Z,1.92
2022-12-06T11:22:40.547Z,1.91
2022-12-06T11:23:40.520Z,1.90
2022-12-06T11:24:44.648Z,1.90
2022-12-06T11:25:40.509Z,1.90
2022-12-06T11:26:40.555Z,1.90
2022-12-06T11:27:40.508Z,1.90
2022-12-06T11:28:40.506Z,1.90
2022-12-06T11:29:40.427Z,1.89
2022-12-06T11:30:40.420Z,1.89
2022-12-06T11:31:40.490Z,1.88
2022-12-06T11:32:40.472Z,1.87
2022-12-06T11:33:40.423Z,1.85
2022-12-06T11:34:40.409Z,1.84
2022-12-06T11:35:40.403Z,1.83
2022-12-06T11:36:40.342Z,1.83
2022-12-06T11:37:44.353Z,1.84
2022-12-06T11:38:40.333Z,1.84
2022-12-06T11:39:40.325Z,1.85
2022-12-06T11:40:40.300Z,1.84
2022-12-06T11:41:40.286Z,1.84
2022-12-06T11:42:40.276Z,1.84
2022-12-06T11:43:40.290Z,1.83
2022-12-06T11:44:43.542Z,1.82
2022-12-06T11:45:40.271Z,1.80
2022-12-06T11:46:40.322Z,1.80
2022-12-06T11:47:43.114Z,1.80
2022-12-06T11:48:40.314Z,1.80
2022-12-06T11:49:40.201Z,1.80
2022-12-06T11:50:40.196Z,1.80
2022-12-06T11:51:40.155Z,1.79
2022-12-06T11:52:40.128Z,1.78
2022-12-06T11:53:40.852Z,1.77
2022-12-06T11:54:40.118Z,1.77
2022-12-06T11:55:40.127Z,1.77
2022-12-06T11:56:40.273Z,1.77
2022-12-06T11:57:40.055Z,1.77
2022-12-06T11:58:40.060Z,1.77
2022-12-06T11:59:40.071Z,1.77
2022-12-06T12:00:40.052Z,1.77
2022-12-06T12:01:40.111Z,1.76
2022-12-06T12:02:40.080Z,1.76
2022-12-06T12:03:40.033Z,1.75
2022-12-06T12:04:40.012Z,1.75
2022-12-06T12:05:39.967Z,1.75
2022-12-06T12:06:39.939Z,1.76
2022-12-06T12:07:39.986Z,1.78
2022-12-06T12:08:39.912Z,1.80
2022-12-06T12:09:39.942Z,1.83
2022-12-06T12:10:39.928Z,1.85
2022-12-06T12:11:39.947Z,1.88
2022-12-06T12:12:39.884Z,1.90
2022-12-06T12:13:39.849Z,1.92
2022-12-06T12:14:39.846Z,1.94
2022-12-06T12:15:39.858Z,1.97
2022-12-06T12:16:39.842Z,2.00
2022-12-06T12:17:39.837Z,2.03
2022-12-06T12:18:39.806Z,2.05
2022-12-06T12:19:39.782Z,2.07
2022-12-06T12:20:39.795Z,2.09
2022-12-06T12:21:39.762Z,2.11
2022-12-06T12:22:39.753Z,2.13
2022-12-06T12:23:39.724Z,2.14
2022-12-06T12:25:03.294Z,2.16
2022-12-06T12:25:39.723Z,2.16
2022-12-06T12:26:39.736Z,2.16
2022-12-06T12:27:39.686Z,2.14
2022-12-06T12:28:39.684Z,2.12
2022-12-06T12:29:39.670Z,2.12
2022-12-06T12:30:39.658Z,2.11
2022-12-06T12:31:39.720Z,2.10
2022-12-06T12:32:39.618Z,2.10
2022-12-06T12:33:39.611Z,2.10
2022-12-06T12:34:42.885Z,2.12
2022-12-06T12:35:39.610Z,2.14
2022-12-06T12:36:39.588Z,2.15
2022-12-06T12:37:39.546Z,2.15
2022-12-06T12:38:39.531Z,2.14
2022-12-06T12:39:39.533Z,2.13
2022-12-06T12:40:39.541Z,2.13
2022-12-06T12:41:39.488Z,2.14
2022-12-06T12:42:39.487Z,2.15
2022-12-06T12:43:39.472Z,2.15
2022-12-06T12:44:39.967Z,2.16
2022-12-06T12:45:39.552Z,2.17
2022-12-06T12:46:39.416Z,2.19
2022-12-06T12:47:39.441Z,2.20
2022-12-06T12:48:39.438Z,2.21
2022-12-06T12:49:39.383Z,2.21
2022-12-06T12:50:39.375Z,2.21
2022-12-06T12:51:43.645Z,2.21
2022-12-06T12:52:39.370Z,2.21
2022-12-06T12:53:39.379Z,2.21
2022-12-06T12:54:39.356Z,2.20
2022-12-06T12:55:39.335Z,2.18
2022-12-06T12:56:39.342Z,2.15
2022-12-06T12:57:39.333Z,2.12
2022-12-06T12:58:39.318Z,2.09
2022-12-06T12:59:39.253Z,2.08
2022-12-06T13:00:39.231Z,2.08
2022-12-06T13:01:39.323Z,2.08
2022-12-06T13:02:39.238Z,2.07
2022-12-06T13:03:54.628Z,2.07
2022-12-06T13:04:39.208Z,2.07
2022-12-06T13:05:44.897Z,2.07
2022-12-06T13:06:39.186Z,2.07
2022-12-06T13:07:39.223Z,2.07
2022-12-06T13:08:39.160Z,2.06
2022-12-06T13:09:39.154Z,2.03
2022-12-06T13:10:39.118Z,2.00
2022-12-06T13:11:39.114Z,1.99
2022-12-06T13:12:39.076Z,1.97
2022-12-06T13:13:39.077Z,1.96
2022-12-06T13:14:39.089Z,1.95
2022-12-06T13:15:39.058Z,1.94
2022-12-06T13:16:39.087Z,1.92
2022-12-06T13:17:39.029Z,1.91
2022-12-06T13:18:39.043Z,1.89
2022-12-06T13:19:39.008Z,1.88